Terminal Aerodrome Forecast
Issued by NWS Louisville, KY

Home | Current Version | Previous Version | Text Only | Print | Product List | Glossary On
Versions: 1 2 3 4 5 6 7 8 9 10 11 12 13 14 15 16 17 18 19 20
000
FTUS43 KLMK 280500
TAFBWG
TAF
KBWG 280524Z 2806/2906 00000KT P6SM BKN200
     FM281000 00000KT 4SM BR SCT015 SCT250
      TEMPO 2810/2813 2SM BR
     FM281500 25006KT P6SM BKN035
     FM290100 VRB03KT P6SM SCT080=

USA.gov is the U.S. government's official web portal to all federal, state and local government web resources and services.